Time;durP1;ratioP1;P1;durP2;ratioP2;P2;SDS_P1;SDS_P2;PMS_P1;PMS_P2;Temp;Humidity;BMP_temperature;BMP_pressure;BME280_temperature;BME280_humidity;BME280_pressure;Samples;Min_cycle;Max_cycle;Signal;HPM_P1;HPM_P2
2024/03/10 00:01:56;;;;;;;32.97;18.42;;;;;;;9.59;57.45;99481.44;6119445;22;97436;-76
2024/03/10 00:04:22;;;;;;;25.33;17.92;;;;;;;9.60;57.35;99477.91;6068422;23;97313;-79
2024/03/10 00:06:47;;;;;;;24.45;16.67;;;;;;;9.54;57.64;99471.19;6116570;23;96762;-76
2024/03/10 00:09:13;;;;;;;24.45;16.92;;;;;;;9.29;57.75;99453.03;6092088;23;97577;-77
2024/03/10 00:11:38;;;;;;;23.40;16.67;;;;;;;9.29;57.96;99451.25;6092731;23;97295;-76
2024/03/10 00:14:04;;;;;;;24.90;16.98;;;;;;;9.40;58.02;99468.31;6118275;23;96675;-77
2024/03/10 00:16:31;;;;;;;28.40;17.42;;;;;;;9.41;58.11;99473.47;6093015;23;97184;-76
2024/03/10 00:18:59;;;;;;;28.75;18.25;;;;;;;9.37;58.39;99471.06;6123008;22;97839;-79
2024/03/10 00:21:25;;;;;;;22.95;15.98;;;;;;;9.41;58.05;99465.59;6098415;22;100242;-76
2024/03/10 00:23:50;;;;;;;24.60;16.85;;;;;;;9.36;58.41;99454.47;6098132;22;96650;-76
2024/03/10 00:26:16;;;;;;;26.52;17.38;;;;;;;9.23;58.80;99441.06;6097864;22;97273;-77
2024/03/10 00:28:42;;;;;;;26.23;17.67;;;;;;;9.32;58.52;99449.44;6122363;22;96714;-79
2024/03/10 00:31:09;;;;;;;26.17;17.02;;;;;;;9.31;58.95;99459.06;6122505;22;96604;-77
2024/03/10 00:33:38;;;;;;;24.25;16.58;;;;;;;9.26;59.16;99455.78;6123364;22;96620;-77
2024/03/10 00:36:06;;;;;;;22.90;16.45;;;;;;;9.23;59.20;99455.91;6123011;22;96724;-77
2024/03/10 00:38:32;;;;;;;24.02;16.67;;;;;;;9.25;59.04;99448.81;6122764;22;97344;-77
2024/03/10 00:40:57;;;;;;;22.33;15.18;;;;;;;9.32;59.08;99434.56;6148620;22;97760;-77
2024/03/10 00:43:23;;;;;;;25.10;16.58;;;;;;;9.29;59.05;99445.19;6123104;22;97020;-77
2024/03/10 00:45:50;;;;;;;22.55;15.93;;;;;;;9.26;59.35;99448.78;6123288;22;96667;-77
2024/03/10 00:48:16;;;;;;;22.52;16.02;;;;;;;9.35;58.93;99429.19;6097792;22;100513;-77
2024/03/10 00:50:42;;;;;;;22.08;16.17;;;;;;;9.29;59.25;99443.41;6097343;22;97334;-78
2024/03/10 00:53:07;;;;;;;24.75;17.40;;;;;;;9.25;59.87;99434.00;6096947;22;96828;-77
2024/03/10 00:55:33;;;;;;;23.08;15.93;;;;;;;9.25;59.29;99440.97;6122531;22;96739;-77
2024/03/10 00:57:58;;;;;;;24.52;16.42;;;;;;;9.22;59.60;99428.00;6122670;22;97225;-78
2024/03/10 01:00:25;;;;;;;25.92;16.30;;;;;;;9.22;59.73;99436.75;6148923;22;97034;-76
2024/03/10 01:02:50;;;;;;;24.63;16.92;;;;;;;9.27;59.58;99440.00;6122891;22;96664;-77
2024/03/10 01:05:17;;;;;;;24.25;16.25;;;;;;;9.26;59.12;99433.06;6122602;22;97166;-76
2024/03/10 01:07:43;;;;;;;25.92;17.88;;;;;;;9.19;59.59;99415.91;6097970;22;97779;-77
2024/03/10 01:10:11;;;;;;;26.35;16.05;;;;;;;9.18;59.41;99415.97;6122756;22;97290;-77
2024/03/10 01:12:38;;;;;;;24.33;16.75;;;;;;;9.25;59.59;99423.50;6122090;22;96961;-77
2024/03/10 01:15:05;;;;;;;24.77;17.02;;;;;;;9.19;59.61;99404.56;6097911;22;97218;-77
2024/03/10 01:17:31;;;;;;;28.40;16.27;;;;;;;9.21;59.94;99419.31;6097027;22;100697;-77
2024/03/10 01:19:58;;;;;;;25.10;17.33;;;;;;;9.20;59.12;99408.91;6092262;23;100203;-79
2024/03/10 01:22:24;;;;;;;25.52;16.17;;;;;;;9.22;59.44;99413.16;6092555;23;96621;-77
2024/03/10 01:24:49;;;;;;;23.40;17.10;;;;;;;9.20;59.00;99399.28;6092728;23;96691;-77
2024/03/10 01:27:15;;;;;;;23.42;16.25;;;;;;;9.28;59.15;99405.06;6092628;23;100335;-77
2024/03/10 01:29:40;;;;;;;24.90;16.73;;;;;;;9.29;59.25;99401.50;6092332;23;97385;-76
2024/03/10 01:32:08;;;;;;;26.10;16.65;;;;;;;9.18;59.27;99392.41;6117582;23;96712;-77
2024/03/10 01:34:34;;;;;;;26.42;17.60;;;;;;;9.23;58.69;99401.78;6093290;23;97039;-77
2024/03/10 01:37:00;;;;;;;23.23;16.02;;;;;;;9.22;58.71;99378.25;6117506;23;97674;-77
2024/03/10 01:39:27;;;;;;;24.30;16.92;;;;;;;9.25;58.62;99389.47;6117257;23;97821;-77
2024/03/10 01:41:54;;;;;;;33.42;20.10;;;;;;;9.24;59.33;99379.03;6118407;22;96675;-79
2024/03/10 01:44:20;;;;;;;27.42;18.65;;;;;;;9.19;58.83;99386.25;6093366;23;96698;-76
2024/03/10 01:46:46;;;;;;;29.50;19.38;;;;;;;9.25;59.11;99392.09;6117187;23;97480;-77
2024/03/10 01:49:11;;;;;;;29.50;19.15;;;;;;;9.18;59.25;99382.78;6092342;23;100568;-77
2024/03/10 01:51:38;;;;;;;25.67;17.90;;;;;;;9.13;59.24;99391.75;6118892;23;97168;-77
2024/03/10 01:54:06;;;;;;;28.42;19.83;;;;;;;9.07;59.30;99385.88;6117206;23;96740;-76
2024/03/10 01:56:32;;;;;;;29.67;20.10;;;;;;;9.03;59.78;99381.66;6118701;22;97338;-76
2024/03/10 01:58:58;;;;;;;29.52;18.88;;;;;;;9.09;60.05;99377.94;6117756;23;97693;-77
2024/03/10 02:01:24;;;;;;;26.70;18.25;;;;;;;9.10;60.04;99370.94;6094032;23;96730;-77
2024/03/10 02:03:50;;;;;;;30.30;19.50;;;;;;;9.08;59.92;99378.88;6120795;23;96759;-77
2024/03/10 02:06:15;;;;;;;27.10;18.83;;;;;;;9.12;59.77;99363.88;6119900;23;97217;-77
2024/03/10 02:08:46;;;;;;;25.33;17.80;;;;;;;9.17;59.90;99373.22;6122216;23;97842;-76
2024/03/10 02:11:12;;;;;;;35.30;20.20;;;;;;;9.10;59.22;99366.53;6072105;23;96755;-76
2024/03/10 02:13:38;;;;;;;28.02;19.65;;;;;;;8.99;59.87;99350.47;6095986;23;96767;-77
2024/03/10 02:16:05;;;;;;;30.23;19.88;;;;;;;9.03;59.76;99358.09;6120086;23;97325;-77
2024/03/10 02:18:32;;;;;;;29.70;19.10;;;;;;;9.06;59.66;99367.59;6120427;23;97586;-76
2024/03/10 02:20:58;;;;;;;28.30;19.55;;;;;;;9.10;60.20;99358.69;6094498;23;97057;-86
2024/03/10 02:23:30;;;;;;;30.17;19.15;;;;;;;9.15;59.26;99356.72;6095176;23;97046;-77
2024/03/10 02:25:58;;;;;;;27.95;18.73;;;;;;;9.15;59.41;99361.97;6070530;23;100800;-77
2024/03/10 02:28:34;;;;;;;31.23;19.23;;;;;;;9.11;59.67;99349.09;6095780;23;100625;-77
2024/03/10 02:47:11;;;;;;;28.23;19.75;;;;;;;9.13;59.85;99353.31;6096993;23;96668;-77
2024/03/10 02:47:32;;;;;;;27.40;18.85;;;;;;;9.00;59.27;99313.75;6098759;23;100320;-80
2024/03/10 02:50:05;;;;;;;30.15;20.52;;;;;;;9.12;58.83;99325.44;6070763;23;100414;-78
2024/03/10 02:52:34;;;;;;;30.88;20.02;;;;;;;9.18;58.98;99326.94;6119760;23;97133;-76
2024/03/10 02:55:01;;;;;;;36.65;20.75;;;;;;;9.16;59.08;99327.03;6095548;23;96838;-76
2024/03/10 02:57:30;;;;;;;31.00;19.42;;;;;;;9.16;58.81;99337.50;6119646;23;97298;-76
2024/03/10 02:59:56;;;;;;;30.73;19.52;;;;;;;9.07;58.62;99324.78;6095536;23;97722;-76
2024/03/10 03:02:22;;;;;;;32.67;20.20;;;;;;;9.06;58.86;99334.41;6095354;23;96679;-76
2024/03/10 03:04:48;;;;;;;36.80;21.63;;;;;;;9.09;58.81;99327.34;6095387;23;96705;-77
2024/03/10 03:07:14;;;;;;;33.10;19.70;;;;;;;8.99;58.60;99314.69;6119998;23;97860;-76
2024/03/10 03:09:40;;;;;;;32.47;19.75;;;;;;;9.03;59.02;99325.84;6093602;23;100722;-76
2024/03/10 03:12:05;;;;;;;32.22;20.17;;;;;;;9.03;58.42;99315.38;6117420;23;96669;-76
2024/03/10 03:14:31;;;;;;;33.42;20.63;;;;;;;8.92;58.44;99307.97;6118795;23;97263;-76
2024/03/10 03:16:56;;;;;;;30.65;19.83;;;;;;;9.04;58.59;99315.28;6119726;22;96628;-77
2024/03/10 03:19:22;;;;;;;32.08;20.23;;;;;;;9.05;58.25;99305.69;6117095;23;98198;-76
2024/03/10 03:21:48;;;;;;;34.42;20.17;;;;;;;9.07;58.08;99311.69;6117545;23;97024;-76
2024/03/10 03:24:15;;;;;;;30.15;20.45;;;;;;;9.15;57.75;99306.97;6092943;23;96746;-77
2024/03/10 03:26:42;;;;;;;30.98;19.77;;;;;;;9.17;57.60;99305.16;6092623;23;97317;-76
2024/03/10 03:29:09;;;;;;;32.05;19.80;;;;;;;9.12;58.08;99308.91;6118047;23;97462;-76
2024/03/10 03:31:36;;;;;;;28.58;18.50;;;;;;;9.26;57.67;99319.59;6092803;23;97083;-76
2024/03/10 03:34:01;;;;;;;31.52;19.92;;;;;;;9.23;58.04;99319.75;6118204;23;96965;-76
2024/03/10 03:36:27;;;;;;;29.15;19.38;;;;;;;9.25;57.64;99315.28;6093006;23;100775;-77
2024/03/10 03:38:52;;;;;;;28.55;18.10;;;;;;;9.23;57.79;99311.88;6093506;23;100400;-76
2024/03/10 03:41:18;;;;;;;28.98;18.50;;;;;;;9.18;57.61;99306.84;6117831;23;97252;-76
2024/03/10 03:43:43;;;;;;;31.20;19.10;;;;;;;9.14;58.35;99310.53;6118330;23;96970;-77
2024/03/10 03:46:09;;;;;;;33.38;20.05;;;;;;;9.10;57.90;99300.25;6092586;23;97262;-77
2024/03/10 03:48:35;;;;;;;30.40;19.08;;;;;;;9.16;58.05;99300.84;6093229;23;97126;-77
2024/03/10 03:51:01;;;;;;;29.58;18.63;;;;;;;9.15;58.12;99309.59;6117735;23;96668;-77
2024/03/10 03:53:26;;;;;;;32.17;19.50;;;;;;;9.18;58.22;99306.00;6117821;23;96985;-79
2024/03/10 03:55:52;;;;;;;31.33;18.70;;;;;;;9.21;58.46;99303.25;6093292;23;100365;-76
2024/03/10 03:58:17;;;;;;;27.25;19.05;;;;;;;9.20;57.80;99291.09;6093122;23;98658;-76
2024/03/10 04:00:43;;;;;;;29.95;19.10;;;;;;;9.25;57.82;99289.97;6117892;23;97141;-76
2024/03/10 04:03:09;;;;;;;27.27;18.05;;;;;;;9.19;57.63;99289.34;6093564;23;97398;-80
2024/03/10 04:05:35;;;;;;;28.60;18.20;;;;;;;9.26;58.04;99289.03;6117824;23;97370;-77
2024/03/10 04:08:01;;;;;;;30.75;19.52;;;;;;;9.30;58.15;99287.97;6117825;23;97694;-76
2024/03/10 04:10:26;;;;;;;31.48;19.40;;;;;;;9.31;57.61;99288.84;6092584;23;96897;-77
2024/03/10 04:12:53;;;;;;;28.52;17.88;;;;;;;9.19;57.93;99285.00;6093201;23;96672;-76
2024/03/10 04:15:19;;;;;;;27.45;17.73;;;;;;;9.17;58.22;99283.38;6117086;23;100148;-77
2024/03/10 04:17:46;;;;;;;34.22;19.00;;;;;;;9.17;58.64;99278.13;6117538;23;97251;-76
2024/03/10 04:20:13;;;;;;;26.98;18.48;;;;;;;9.19;58.33;99281.50;6117025;23;96784;-76
2024/03/10 04:22:41;;;;;;;28.40;18.33;;;;;;;9.28;58.16;99286.34;6093149;23;96832;-78
2024/03/10 04:25:10;;;;;;;30.10;18.63;;;;;;;9.21;58.36;99284.91;6118858;23;97451;-76
2024/03/10 04:27:36;;;;;;;27.00;17.90;;;;;;;9.23;58.24;99278.69;6118356;23;97307;-77
2024/03/10 04:30:04;;;;;;;25.35;16.77;;;;;;;9.22;57.78;99277.00;6117675;23;97455;-77
2024/03/10 04:32:30;;;;;;;29.40;17.88;;;;;;;9.18;58.15;99272.81;6092629;23;97025;-77
2024/03/10 04:34:56;;;;;;;25.92;17.58;;;;;;;9.23;58.28;99265.59;6067414;23;99002;-76
2024/03/10 04:37:23;;;;;;;41.55;18.92;;;;;;;9.19;58.28;99273.66;6117852;23;97338;-76
2024/03/10 04:39:48;;;;;;;29.60;18.10;;;;;;;9.28;57.88;99279.34;6092853;23;97021;-76
2024/03/10 04:42:15;;;;;;;28.08;18.35;;;;;;;9.24;57.78;99272.53;6117879;23;96824;-78
2024/03/10 04:44:41;;;;;;;34.80;17.17;;;;;;;9.27;57.87;99275.00;6117604;23;97341;-77
2024/03/10 04:47:07;;;;;;;26.23;17.10;;;;;;;9.25;57.57;99281.22;6117663;23;98400;-77
2024/03/10 04:49:33;;;;;;;28.13;17.73;;;;;;;9.28;57.34;99276.72;6117515;23;96595;-76
2024/03/10 04:52:00;;;;;;;26.20;17.75;;;;;;;9.17;57.61;99267.66;6093280;23;97031;-78
2024/03/10 04:54:26;;;;;;;27.38;18.00;;;;;;;9.21;57.50;99274.44;6117200;23;97391;-77
2024/03/10 04:56:53;;;;;;;27.70;17.95;;;;;;;9.16;57.31;99271.16;6117634;23;97211;-76
2024/03/10 04:59:19;;;;;;;24.38;16.33;;;;;;;9.16;57.23;99268.56;6117111;23;97067;-79
2024/03/10 05:01:46;;;;;;;34.47;17.33;;;;;;;9.19;57.07;99271.03;6093346;23;96686;-77
2024/03/10 05:04:11;;;;;;;28.35;17.05;;;;;;;9.18;57.23;99270.19;6119247;22;97049;-77
2024/03/10 05:06:37;;;;;;;28.48;16.58;;;;;;;9.19;56.74;99269.28;6092210;23;100239;-76
2024/03/10 05:09:03;;;;;;;27.35;17.45;;;;;;;9.20;57.15;99270.13;6117451;23;96647;-77
2024/03/10 05:11:29;;;;;;;24.98;17.15;;;;;;;9.10;57.57;99271.44;6092851;23;97472;-77
2024/03/10 05:13:54;;;;;;;27.52;17.70;;;;;;;9.17;57.45;99276.34;6117938;23;97377;-77
2024/03/10 05:16:21;;;;;;;26.80;16.90;;;;;;;9.19;56.73;99276.28;6117765;23;97411;-77
2024/03/10 05:18:46;;;;;;;29.98;17.70;;;;;;;9.25;56.98;99284.72;6094522;22;97219;-77
2024/03/10 05:21:12;;;;;;;25.75;16.77;;;;;;;9.26;56.76;99281.16;6097420;22;96916;-77
2024/03/10 05:23:38;;;;;;;26.58;17.05;;;;;;;9.20;57.15;99273.59;6121338;22;97362;-76
2024/03/10 05:26:04;;;;;;;27.70;17.00;;;;;;;9.22;56.80;99277.00;6095704;22;97525;-77
2024/03/10 05:28:32;;;;;;;29.77;16.52;;;;;;;9.15;57.17;99266.88;6097564;22;96661;-76
2024/03/10 05:30:57;;;;;;;27.33;17.50;;;;;;;9.22;57.02;99283.97;6097586;22;96662;-76
2024/03/10 05:33:23;;;;;;;27.80;17.20;;;;;;;9.18;57.39;99267.56;6097578;22;97379;-77
2024/03/10 05:35:49;;;;;;;25.17;17.00;;;;;;;9.21;57.28;99272.66;6121535;22;97526;-78
2024/03/10 05:38:15;;;;;;;26.83;16.70;;;;;;;9.12;56.88;99269.63;6122682;22;96765;-77
2024/03/10 05:40:41;;;;;;;27.17;17.58;;;;;;;9.19;56.75;99269.28;6122297;22;97305;-77
2024/03/10 05:43:08;;;;;;;24.98;15.43;;;;;;;9.19;57.00;99277.16;6121294;22;97384;-77
2024/03/10 05:45:33;;;;;;;24.52;15.98;;;;;;;9.17;56.60;99267.66;6120484;22;100686;-77
2024/03/10 05:47:59;;;;;;;23.10;16.70;;;;;;;9.23;56.83;99265.59;6121072;22;96728;-82
2024/03/10 05:50:25;;;;;;;23.50;15.77;;;;;;;9.24;56.97;99277.75;6095804;22;97157;-77
2024/03/10 05:52:52;;;;;;;24.02;16.30;;;;;;;9.26;56.30;99265.47;6120820;22;97481;-77
2024/03/10 05:55:18;;;;;;;24.85;16.73;;;;;;;9.27;56.51;99264.53;6148442;22;97200;-77
2024/03/10 05:57:45;;;;;;;28.15;16.45;;;;;;;9.21;56.46;99267.44;6121759;22;96998;-76
2024/03/10 06:00:14;;;;;;;22.58;15.73;;;;;;;9.29;55.92;99264.47;6121614;22;97060;-77
2024/03/10 06:02:44;;;;;;;23.90;16.05;;;;;;;9.27;55.75;99269.75;6121559;22;100319;-78
2024/03/10 06:05:12;;;;;;;25.67;16.02;;;;;;;9.31;55.87;99267.88;6122787;22;97301;-77
2024/03/10 06:07:37;;;;;;;25.23;16.42;;;;;;;9.32;55.67;99273.97;6097142;22;96647;-76
2024/03/10 06:10:05;;;;;;;25.02;15.57;;;;;;;9.33;55.90;99259.94;6096956;22;96862;-77
2024/03/10 06:12:31;;;;;;;24.88;16.13;;;;;;;9.41;55.54;99260.44;6147011;22;97311;-77
2024/03/10 06:14:57;;;;;;;25.58;14.98;;;;;;;9.35;56.00;99258.09;6071674;22;100229;-77
2024/03/10 06:17:30;;;;;;;22.08;15.35;;;;;;;9.39;56.16;99257.03;6122260;22;96602;-77
2024/03/10 06:25:28;;;;;;;24.77;14.80;;;;;;;9.50;55.75;99255.63;6117126;23;97555;-77
2024/03/10 06:27:57;;;;;;;24.08;15.50;;;;;;;9.41;56.21;99253.44;6117225;23;96768;-76
2024/03/10 06:30:23;;;;;;;24.83;16.35;;;;;;;9.46;55.58;99258.47;6117220;23;96862;-76
2024/03/10 06:32:51;;;;;;;21.23;14.48;;;;;;;9.48;55.75;99256.59;6116109;23;97327;-80
2024/03/10 06:35:17;;;;;;;22.08;14.98;;;;;;;9.57;55.88;99268.44;6116171;23;97445;-77
2024/03/10 06:37:48;;;;;;;21.48;13.77;;;;;;;9.46;55.25;99254.06;6117178;22;96646;-77
2024/03/10 06:40:13;;;;;;;22.98;14.25;;;;;;;9.52;55.44;99259.03;6116422;23;97014;-76
2024/03/10 06:42:39;;;;;;;19.98;13.75;;;;;;;9.54;55.01;99266.84;6066435;23;99871;-78
2024/03/10 06:45:05;;;;;;;23.02;14.15;;;;;;;9.52;55.19;99250.31;6091584;23;100419;-80
2024/03/10 06:47:31;;;;;;;18.73;13.55;;;;;;;9.53;54.83;99262.50;6117436;23;97212;-77
2024/03/10 06:49:57;;;;;;;22.10;14.13;;;;;;;9.58;55.01;99260.50;6092841;23;96698;-77
2024/03/10 06:52:22;;;;;;;19.48;13.20;;;;;;;9.66;55.12;99260.16;6116637;23;100219;-78
2024/03/10 06:54:48;;;;;;;21.08;13.48;;;;;;;9.60;55.09;99255.19;6068113;23;100290;-77
2024/03/10 06:57:13;;;;;;;23.80;13.73;;;;;;;9.72;54.75;99255.47;6117901;23;96671;-76
2024/03/10 06:59:41;;;;;;;22.10;13.88;;;;;;;9.64;54.66;99254.97;6092014;23;96847;-77
2024/03/10 07:02:11;;;;;;;22.63;12.40;;;;;;;9.63;54.95;99248.06;6117992;23;97275;-77
2024/03/10 07:04:38;;;;;;;21.40;13.43;;;;;;;9.61;54.11;99246.41;6113978;23;97950;-85
2024/03/10 07:07:04;;;;;;;17.35;12.10;;;;;;;9.64;54.44;99241.88;6057143;23;97422;-78
2024/03/10 07:09:30;;;;;;;20.63;13.88;;;;;;;9.70;54.14;99244.22;6110883;22;97024;-85
2024/03/10 07:11:55;;;;;;;17.08;12.20;;;;;;;9.78;54.15;99248.25;6109517;23;100080;-77
2024/03/10 07:14:21;;;;;;;18.67;12.18;;;;;;;9.62;53.85;99224.53;6087939;23;100813;-77
2024/03/10 07:16:47;;;;;;;19.70;12.88;;;;;;;9.74;54.23;99237.03;6119646;23;97064;-77
2024/03/10 07:19:16;;;;;;;19.08;11.48;;;;;;;9.86;54.13;99256.56;6122994;22;97124;-78
2024/03/10 07:21:45;;;;;;;17.95;11.07;;;;;;;9.90;53.28;99250.28;6071267;22;100546;-77
2024/03/10 07:24:11;;;;;;;15.30;10.50;;;;;;;9.92;53.46;99248.44;6119493;22;97303;-77
2024/03/10 07:26:36;;;;;;;18.08;12.38;;;;;;;9.91;53.54;99246.72;6094782;22;97116;-78
2024/03/10 07:29:02;;;;;;;16.75;11.15;;;;;;;9.79;53.33;99216.72;6120407;22;96918;-77
2024/03/10 07:31:28;;;;;;;15.55;11.60;;;;;;;9.91;52.93;99242.31;6094872;22;100591;-78
2024/03/10 07:33:54;;;;;;;16.15;11.48;;;;;;;9.99;53.42;99239.34;6146448;22;97386;-76
2024/03/10 07:36:20;;;;;;;17.25;11.60;;;;;;;10.02;53.40;99246.22;6095404;22;97384;-77
2024/03/10 07:38:46;;;;;;;15.75;11.20;;;;;;;10.07;53.46;99246.84;6070415;22;97168;-81
2024/03/10 07:41:12;;;;;;;15.93;11.07;;;;;;;10.05;52.90;99233.78;6095507;22;100083;-77
2024/03/10 07:43:37;;;;;;;19.15;12.23;;;;;;;10.10;53.19;99249.31;6095563;22;97327;-77
2024/03/10 07:46:05;;;;;;;16.70;10.93;;;;;;;10.05;52.82;99231.16;6095429;22;96746;-77
2024/03/10 07:48:32;;;;;;;17.25;10.48;;;;;;;10.17;53.03;99242.84;6120740;22;97090;-79
2024/03/10 07:50:58;;;;;;;17.48;10.68;;;;;;;10.17;52.96;99230.56;6119120;22;98047;-77
2024/03/10 07:53:23;;;;;;;15.38;10.02;;;;;;;10.19;53.17;99244.47;6119221;22;97293;-77
2024/03/10 07:55:49;;;;;;;18.08;11.20;;;;;;;10.18;53.05;99245.38;6095311;22;96739;-78
2024/03/10 07:58:15;;;;;;;15.65;10.85;;;;;;;10.23;53.08;99242.53;6145674;22;97241;-77
2024/03/10 08:00:42;;;;;;;15.88;10.10;;;;;;;10.24;53.08;99233.75;6118163;22;100598;-77
2024/03/10 08:03:09;;;;;;;18.00;10.65;;;;;;;10.25;53.60;99224.94;6095199;22;99389;-76
2024/03/10 08:05:35;;;;;;;14.80;10.45;;;;;;;10.20;53.17;99226.94;6097127;22;97030;-76
2024/03/10 08:08:01;;;;;;;17.38;11.07;;;;;;;10.32;53.56;99233.38;6147976;22;97049;-79
2024/03/10 08:10:27;;;;;;;15.65;10.32;;;;;;;10.28;53.64;99229.22;6096483;22;100572;-80
2024/03/10 08:12:55;;;;;;;16.80;11.20;;;;;;;10.28;53.61;99229.22;6097087;22;97260;-76
2024/03/10 08:15:21;;;;;;;19.65;10.50;;;;;;;10.43;53.57;99217.94;6072721;22;97061;-77
2024/03/10 08:17:47;;;;;;;17.60;11.35;;;;;;;10.42;53.49;99226.75;6122304;22;96767;-77
2024/03/10 08:20:13;;;;;;;15.50;10.82;;;;;;;10.48;53.71;99236.94;6122192;22;97465;-77
2024/03/10 08:22:41;;;;;;;17.27;11.88;;;;;;;10.45;53.67;99238.88;6096601;22;100222;-77
2024/03/10 08:25:07;;;;;;;16.90;11.15;;;;;;;10.45;53.93;99229.22;6121484;22;97230;-77
2024/03/10 08:27:35;;;;;;;13.88;10.27;;;;;;;10.55;54.09;99229.59;6147030;22;96713;-77
2024/03/10 08:30:03;;;;;;;15.45;10.13;;;;;;;10.60;53.84;99219.72;6121068;22;97534;-77
2024/03/10 08:32:29;;;;;;;13.73;9.35;;;;;;;10.55;54.18;99213.84;6120921;22;100066;-77
2024/03/10 08:34:55;;;;;;;18.25;10.95;;;;;;;10.61;53.72;99213.53;6147815;22;96667;-76
2024/03/10 08:37:22;;;;;;;16.08;10.70;;;;;;;10.69;53.45;99200.88;6118954;22;97637;-77
2024/03/10 08:39:50;;;;;;;16.88;10.05;;;;;;;10.87;53.39;99205.13;6117640;22;97403;-76
2024/03/10 08:42:16;;;;;;;14.93;10.10;;;;;;;10.86;52.75;99194.72;6120848;22;97392;-79
2024/03/10 08:44:42;;;;;;;17.98;11.20;;;;;;;10.91;52.86;99199.72;6147671;22;96650;-77
2024/03/10 08:47:08;;;;;;;18.95;11.73;;;;;;;10.86;52.67;99182.44;6095438;22;97100;-77
2024/03/10 08:49:33;;;;;;;16.98;10.50;;;;;;;10.92;52.45;99183.91;6095674;22;97400;-77
2024/03/10 08:52:01;;;;;;;15.38;10.55;;;;;;;11.01;52.40;99195.69;6147025;22;97276;-77
2024/03/10 08:54:29;;;;;;;18.65;11.02;;;;;;;10.95;51.54;99181.13;6147094;22;96990;-83
2024/03/10 08:56:56;;;;;;;18.50;10.80;;;;;;;10.94;51.92;99187.31;6096770;22;96757;-77
2024/03/10 08:59:21;;;;;;;22.67;11.52;;;;;;;10.98;51.51;99191.44;6120807;22;97827;-77
2024/03/10 09:01:47;;;;;;;16.45;10.15;;;;;;;10.94;51.52;99194.31;6092560;22;98837;-77
2024/03/10 09:04:12;;;;;;;17.30;9.73;;;;;;;10.93;51.05;99193.47;6114246;22;96702;-77
2024/03/10 09:06:38;;;;;;;20.88;11.43;;;;;;;10.95;51.25;99193.41;6144152;22;97185;-77
2024/03/10 09:09:04;;;;;;;16.42;10.15;;;;;;;10.94;51.12;99187.31;6142972;22;97471;-78
2024/03/10 09:11:30;;;;;;;17.98;10.30;;;;;;;11.05;50.89;99198.09;6116748;22;98586;-76
2024/03/10 09:13:58;;;;;;;13.10;9.63;;;;;;;11.06;50.77;99196.31;6118824;22;97555;-83
2024/03/10 09:16:24;;;;;;;16.75;10.43;;;;;;;11.11;50.72;99194.25;6094308;22;97221;-76
2024/03/10 09:18:51;;;;;;;16.83;11.05;;;;;;;11.19;50.68;99205.19;6143862;22;97210;-76
2024/03/10 09:21:17;;;;;;;13.80;9.23;;;;;;;11.22;51.08;99207.66;6118715;22;97386;-85
2024/03/10 09:23:44;;;;;;;16.00;9.38;;;;;;;11.23;51.04;99208.53;6145074;22;97177;-77
2024/03/10 09:26:13;;;;;;;13.95;9.43;;;;;;;11.22;50.84;99212.91;6144841;22;96858;-82
2024/03/10 09:28:44;;;;;;;14.55;9.65;;;;;;;11.28;50.71;99203.84;6067892;22;100446;-80
2024/03/10 09:31:11;;;;;;;19.23;11.93;;;;;;;11.20;51.29;99199.03;6094393;22;100163;-78
2024/03/10 09:33:37;;;;;;;16.17;10.55;;;;;;;11.26;51.16;99201.31;6144747;22;97156;-78
2024/03/10 09:36:05;;;;;;;20.48;10.70;;;;;;;11.20;51.45;99182.41;6143929;22;97216;-77
2024/03/10 09:38:31;;;;;;;17.35;11.00;;;;;;;11.14;51.15;99188.88;6114223;22;101060;-78
2024/03/10 09:40:59;;;;;;;19.42;10.45;;;;;;;11.22;51.43;99194.53;6118229;22;99324;-81
2024/03/10 09:43:24;;;;;;;18.10;10.35;;;;;;;11.26;50.76;99196.06;6113343;22;96983;-83
2024/03/10 09:45:52;;;;;;;16.95;9.95;;;;;;;11.37;51.09;99186.72;6087524;22;97305;-78
2024/03/10 09:48:17;;;;;;;16.25;9.98;;;;;;;11.67;50.27;99192.09;6087201;22;97155;-81
2024/03/10 09:50:48;;;;;;;25.35;10.20;;;;;;;11.93;49.67;99193.25;6089106;22;100393;-83
2024/03/10 09:53:15;;;;;;;15.57;10.00;;;;;;;12.15;49.18;99185.81;6090140;22;97290;-82
2024/03/10 09:55:41;;;;;;;16.15;9.65;;;;;;;12.26;48.22;99186.97;6089838;22;97253;-77
2024/03/10 09:58:15;;;;;;;17.85;10.43;;;;;;;12.47;48.38;99185.69;6116535;22;97511;-82
2024/03/10 10:00:45;;;;;;;16.38;10.05;;;;;;;12.21;48.51;99174.06;6115271;22;97684;-82
2024/03/10 10:03:14;;;;;;;17.17;10.70;;;;;;;12.26;48.40;99179.06;6112739;22;97168;-80
2024/03/10 10:05:46;;;;;;;14.68;10.13;;;;;;;12.15;48.80;99179.69;6059510;22;97303;-80
2024/03/10 10:08:12;;;;;;;17.65;10.75;;;;;;;12.23;48.96;99164.31;6085520;22;100243;-80
2024/03/10 10:10:47;;;;;;;18.10;10.38;;;;;;;12.42;48.29;99164.94;6084869;22;100326;-81
2024/03/10 10:13:27;;;;;;;15.90;9.90;;;;;;;12.40;48.37;99164.16;6082455;22;97267;-82
2024/03/10 10:15:53;;;;;;;18.75;9.68;;;;;;;12.51;48.69;99160.03;6107490;22;97259;-81
2024/03/10 10:18:19;;;;;;;14.43;9.82;;;;;;;12.52;48.20;99167.00;6109456;22;98027;-80
2024/03/10 10:20:53;;;;;;;18.98;11.05;;;;;;;12.36;48.45;99159.16;6079279;23;100995;-81
2024/03/10 10:23:23;;;;;;;18.08;10.05;;;;;;;12.35;48.72;99166.22;6077679;23;97304;-80
2024/03/10 10:26:10;;;;;;;15.02;9.75;;;;;;;12.38;48.57;99152.03;6081354;23;97177;-80
2024/03/10 10:28:41;;;;;;;13.45;9.63;;;;;;;12.57;48.38;99143.88;6105126;22;100335;-80
2024/03/10 10:31:13;;;;;;;13.65;8.65;;;;;;;12.74;47.96;99137.56;6106277;23;97254;-80
2024/03/10 10:33:39;;;;;;;15.63;9.48;;;;;;;12.96;48.21;99140.56;6079441;23;97189;-80
2024/03/10 10:36:07;;;;;;;16.90;10.20;;;;;;;12.90;48.20;99138.31;6105632;23;97194;-81
2024/03/10 10:38:40;;;;;;;13.10;9.07;;;;;;;12.90;48.18;99126.00;6080892;23;98117;-80
2024/03/10 10:41:07;;;;;;;16.45;9.40;;;;;;;12.97;47.50;99126.44;6080970;23;100683;-80
2024/03/10 10:43:39;;;;;;;15.38;10.63;;;;;;;12.82;47.56;99127.41;6101994;23;97259;-79
2024/03/10 10:46:06;;;;;;;20.98;10.55;;;;;;;12.88;47.92;99121.75;6056777;23;97229;-80
2024/03/10 10:48:35;;;;;;;18.48;10.13;;;;;;;13.01;47.62;99119.22;6056397;23;100810;-80
2024/03/10 10:51:02;;;;;;;14.65;10.20;;;;;;;13.01;47.65;99121.84;6079032;23;100823;-80
2024/03/10 10:53:28;;;;;;;18.60;11.02;;;;;;;12.88;47.66;99109.44;6061258;23;97238;-80
2024/03/10 10:55:53;;;;;;;13.38;9.00;;;;;;;12.93;47.97;99110.94;6091557;23;96968;-80
2024/03/10 10:58:21;;;;;;;15.98;10.13;;;;;;;12.86;47.61;99113.13;6091279;23;100364;-80
2024/03/10 11:00:53;;;;;;;19.55;11.43;;;;;;;12.72;48.19;99113.13;6092615;23;97487;-81
2024/03/10 11:03:26;;;;;;;17.88;10.43;;;;;;;12.59;48.38;99103.34;6116883;23;97350;-80
2024/03/10 11:06:01;;;;;;;15.05;10.30;;;;;;;12.68;48.03;99125.63;6068419;23;97179;-81
2024/03/10 11:08:28;;;;;;;16.20;10.23;;;;;;;12.58;48.24;99104.28;6115484;23;99895;-80
2024/03/10 11:10:56;;;;;;;18.70;10.35;;;;;;;12.44;48.13;99104.28;6090553;23;100235;-81
2024/03/10 11:13:22;;;;;;;19.83;10.95;;;;;;;12.46;48.83;99095.34;6116561;23;96663;-81
2024/03/10 11:16:11;;;;;;;18.25;10.23;;;;;;;12.55;48.89;99109.75;6088910;23;96736;-81
2024/03/10 11:18:38;;;;;;;20.10;11.43;;;;;;;12.55;48.67;99108.91;6114539;22;97599;-81
2024/03/10 11:21:24;;;;;;;16.48;9.50;;;;;;;12.55;48.53;99115.00;6113613;23;97056;-81
2024/03/10 11:23:50;;;;;;;16.85;10.70;;;;;;;12.52;49.15;99107.28;6110043;23;98608;-80
2024/03/10 11:26:21;;;;;;;14.35;9.93;;;;;;;12.58;49.22;99101.66;6089253;23;97271;-81
2024/03/10 11:28:53;;;;;;;17.65;10.75;;;;;;;12.65;49.00;99102.13;6115082;23;97927;-83
2024/03/10 11:31:35;;;;;;;15.85;10.27;;;;;;;12.63;49.56;99104.84;6113556;23;101249;-83
2024/03/10 11:34:03;;;;;;;14.88;11.02;;;;;;;12.60;49.21;99105.03;6114249;22;96629;-83
2024/03/10 11:36:39;;;;;;;17.23;10.85;;;;;;;12.66;49.32;99093.28;6086018;23;97306;-83
2024/03/10 11:39:07;;;;;;;16.90;10.80;;;;;;;12.69;48.76;99101.00;6112369;23;97835;-83
2024/03/10 11:41:33;;;;;;;14.80;10.65;;;;;;;12.66;49.20;99082.75;6088406;23;99146;-83